PWSweather.com
Personal Weather Stations
Station Observations
KPAEXPOR2
Wellington Estates, Export, PA 15632

Wellington EstatesExport, PA 15632

Lat: 40.446, Lon: -79.592

Elevation: 1286

Station Type: PWS1000-TD

http://www.westmorelandweather.com

Latest ConditionsUpdated 6:00:02 PM EDT Wednesday, Apr 16, 2014
Currently Today's Max Today's Min Today's Average
Temperature 43.5°F6.4°C 46.4°F8.0°C 21.7°F-5.7°C 32.2°F0.1°C
Dew Point 4.0°F-15.6°C 18.6°F-7.4°C 2.7°F-16.3°C 12.8°F-10.7°C
Winds 5.9 mph SSE9.5 kmh SSE 7.0 mph ESE11.3 kmh ESE - 2.2 mph 3.5 kmh
Wind Gusts 9.2 mph14.8 kmh 11.4 mph18.3 kmh - -
Humidity 19% 74% 17% 49%
Pressure 30.40 in1029.5 mb 30.45 in1031.2 mb 30.15 in1021.0 mb -
Precipitation - 0.01 in0.3 mm - -
Hour Temp Dew Point Humidity Winds Wind Gusts Pressure Precip Precip Rate Daily Precip Total
06:00 PM 43.5°F6.4°C 4.0°F-15.6°C 19% 5.9 mph SSE9.5 kmh SSE 9.2 mph14.8 kmh 30.40 in1029.5 mb 0.00 in0.0 mm 0.00 in/hr0.0 mm/hr 0.01 in0.3 mm
05:45 PM 44.2°F6.8°C 5.7°F-14.6°C 20% 5.3 mph SE8.5 kmh SE 8.3 mph13.4 kmh 30.40 in1029.5 mb 0.00 in0.0 mm 0.00 in/hr0.0 mm/hr 0.01 in0.3 mm
05:30 PM 43.5°F6.4°C 5.1°F-14.9°C 20% 4.2 mph SSW6.8 kmh SSW 7.6 mph12.2 kmh 30.40 in1029.5 mb 0.00 in0.0 mm 0.00 in/hr0.0 mm/hr 0.01 in0.3 mm
05:15 PM 44.8°F7.1°C 2.7°F-16.3°C 17% 5.6 mph SE9.0 kmh SE 9.8 mph15.8 kmh 30.40 in1029.5 mb 0.00 in0.0 mm 0.00 in/hr0.0 mm/hr 0.01 in0.3 mm
05:00 PM 45.8°F7.7°C 6.0°F-14.4°C 19% 4.4 mph SE7.1 kmh SE 8.3 mph13.4 kmh 30.40 in1029.5 mb 0.00 in0.0 mm 0.00 in/hr0.0 mm/hr 0.01 in0.3 mm
04:45 PM 44.9°F7.2°C 5.2°F-14.9°C 19% 5.2 mph NW8.4 kmh NW 6.9 mph11.1 kmh 30.40 in1029.5 mb 0.00 in0.0 mm 0.00 in/hr0.0 mm/hr 0.01 in0.3 mm
04:30 PM 46.0°F7.8°C 9.3°F-12.6°C 22% 4.8 mph N7.7 kmh N 7.6 mph12.2 kmh 30.40 in1029.5 mb 0.00 in0.0 mm 0.00 in/hr0.0 mm/hr 0.01 in0.3 mm
04:15 PM 46.4°F8.0°C 10.6°F-11.9°C 23% 5.2 mph NE8.4 kmh NE 9.8 mph15.8 kmh 30.40 in1029.5 mb 0.00 in0.0 mm 0.00 in/hr0.0 mm/hr 0.01 in0.3 mm
04:00 PM 46.2°F7.9°C 12.3°F-10.9°C 25% 4.6 mph E7.4 kmh E 7.6 mph12.2 kmh 30.41 in1029.8 mb 0.00 in0.0 mm 0.00 in/hr0.0 mm/hr 0.01 in0.3 mm
03:45 PM 44.0°F6.7°C 9.6°F-12.4°C 24% 3.9 mph SSW6.3 kmh SSW 6.9 mph11.1 kmh 30.41 in1029.8 mb 0.00 in0.0 mm 0.00 in/hr0.0 mm/hr 0.01 in0.3 mm
03:30 PM 43.0°F6.1°C 9.6°F-12.4°C 25% 3.7 mph ESE6.0 kmh ESE 5.4 mph8.7 kmh 30.41 in1029.8 mb 0.00 in0.0 mm 0.00 in/hr0.0 mm/hr 0.01 in0.3 mm
03:15 PM 44.4°F6.9°C 13.4°F-10.3°C 28% 5.0 mph ENE8.0 kmh ENE 9.8 mph15.8 kmh 30.42 in1030.1 mb 0.00 in0.0 mm 0.00 in/hr0.0 mm/hr 0.01 in0.3 mm
03:00 PM 41.3°F5.2°C 6.4°F-14.2°C 23% 5.0 mph S8.0 kmh S 6.0 mph9.7 kmh 30.42 in1030.1 mb 0.00 in0.0 mm 0.00 in/hr0.0 mm/hr 0.01 in0.3 mm
02:45 PM 44.6°F7.0°C 11.8°F-11.2°C 26% 4.5 mph E7.2 kmh E 6.0 mph9.7 kmh 30.43 in1030.5 mb 0.00 in0.0 mm 0.00 in/hr0.0 mm/hr 0.01 in0.3 mm
02:30 PM 42.6°F5.9°C 12.6°F-10.8°C 29% 4.8 mph N7.7 kmh N 8.3 mph13.4 kmh 30.43 in1030.5 mb 0.00 in0.0 mm 0.00 in/hr0.0 mm/hr 0.01 in0.3 mm
02:15 PM 42.8°F6.0°C 12.0°F-11.1°C 28% 6.2 mph NNW10.0 kmh NNW 9.8 mph15.8 kmh 30.43 in1030.5 mb 0.00 in0.0 mm 0.00 in/hr0.0 mm/hr 0.01 in0.3 mm
02:00 PM 42.2°F5.7°C 13.8°F-10.1°C 31% 6.2 mph E10.0 kmh E 10.7 mph17.2 kmh 30.43 in1030.5 mb 0.00 in0.0 mm 0.00 in/hr0.0 mm/hr 0.01 in0.3 mm
01:45 PM 40.8°F4.9°C 12.5°F-10.8°C 31% 6.7 mph ESE10.8 kmh ESE 9.2 mph14.8 kmh 30.43 in1030.5 mb 0.00 in0.0 mm 0.00 in/hr0.0 mm/hr 0.01 in0.3 mm
01:30 PM 39.7°F4.3°C 7.7°F-13.5°C 26% 4.9 mph ESE7.9 kmh ESE 8.3 mph13.4 kmh 30.43 in1030.5 mb 0.00 in0.0 mm 0.00 in/hr0.0 mm/hr 0.01 in0.3 mm
01:15 PM 39.4°F4.1°C 8.2°F-13.2°C 27% 4.6 mph NW7.4 kmh NW 10.7 mph17.2 kmh 30.43 in1030.5 mb 0.00 in0.0 mm 0.00 in/hr0.0 mm/hr 0.01 in0.3 mm
01:00 PM 39.4°F4.1°C 7.4°F-13.7°C 26% 4.3 mph NNE6.9 kmh NNE 6.9 mph11.1 kmh 30.44 in1030.8 mb 0.00 in0.0 mm 0.00 in/hr0.0 mm/hr 0.01 in0.3 mm
12:45 PM 39.7°F4.3°C 10.1°F-12.2°C 29% 5.6 mph NNE9.0 kmh NNE 9.2 mph14.8 kmh 30.45 in1031.2 mb 0.01 in0.3 mm 0.00 in/hr0.0 mm/hr 0.01 in0.3 mm
12:30 PM 39.9°F4.4°C 9.5°F-12.5°C 28% 6.1 mph E9.8 kmh E 9.2 mph14.8 kmh 30.45 in1031.2 mb 0.01 in0.3 mm 0.00 in/hr0.0 mm/hr 0.01 in0.3 mm
12:15 PM 38.5°F3.6°C 9.0°F-12.8°C 29% 3.6 mph ESE5.8 kmh ESE 8.3 mph13.4 kmh 30.45 in1031.2 mb 0.01 in0.3 mm 0.00 in/hr0.0 mm/hr 0.01 in0.3 mm
12:00 PM 38.1°F3.4°C 12.2°F-11.0°C 34% 7.0 mph ESE11.3 kmh ESE 9.8 mph15.8 kmh 30.45 in1031.2 mb 0.01 in0.3 mm 0.01 in/hr0.3 mm/hr 0.01 in0.3 mm
11:45 AM 37.4°F3.0°C 10.9°F-11.7°C 33% 5.7 mph NE9.2 kmh NE 10.7 mph17.2 kmh 30.45 in1031.2 mb 0.00 in0.0 mm 0.00 in/hr0.0 mm/hr 0.00 in0.0 mm
11:30 AM 35.8°F2.1°C 6.7°F-14.1°C 29% 6.3 mph NE10.1 kmh NE 8.3 mph13.4 kmh 30.45 in1031.2 mb 0.00 in0.0 mm 0.00 in/hr0.0 mm/hr 0.00 in0.0 mm
11:15 AM 36.3°F2.4°C 11.3°F-11.5°C 35% 5.3 mph NE8.5 kmh NE 9.2 mph14.8 kmh 30.45 in1031.2 mb 0.00 in0.0 mm 0.00 in/hr0.0 mm/hr 0.00 in0.0 mm
11:00 AM 35.2°F1.8°C 11.0°F-11.7°C 36% 4.2 mph NNE6.8 kmh NNE 9.2 mph14.8 kmh 30.45 in1031.2 mb 0.00 in0.0 mm 0.00 in/hr0.0 mm/hr 0.00 in0.0 mm
10:45 AM 35.0°F1.7°C 13.2°F-10.4°C 40% 5.2 mph E8.4 kmh E 11.4 mph18.3 kmh 30.45 in1031.2 mb 0.00 in0.0 mm 0.00 in/hr0.0 mm/hr 0.00 in0.0 mm
10:30 AM 34.0°F1.1°C 13.3°F-10.4°C 42% 4.8 mph E7.7 kmh E 6.0 mph9.7 kmh 30.45 in1031.2 mb 0.00 in0.0 mm 0.00 in/hr0.0 mm/hr 0.00 in0.0 mm
10:15 AM 32.5°F0.3°C 9.8°F-12.3°C 38% 4.3 mph N6.9 kmh N 8.3 mph13.4 kmh 30.44 in1030.8 mb 0.00 in0.0 mm 0.00 in/hr0.0 mm/hr 0.00 in0.0 mm
10:00 AM 32.7°F0.4°C 12.2°F-11.0°C 42% Calm Calm -- 30.44 in1030.8 mb 0.00 in0.0 mm 0.00 in/hr0.0 mm/hr 0.00 in0.0 mm
09:45 AM 30.9°F-0.6°C 11.6°F-11.3°C 44% Calm Calm -- 30.44 in1030.8 mb 0.00 in0.0 mm 0.00 in/hr0.0 mm/hr 0.00 in0.0 mm
09:30 AM 30.4°F-0.9°C 13.1°F-10.5°C 48% Calm Calm -- 30.43 in1030.5 mb 0.00 in0.0 mm 0.00 in/hr0.0 mm/hr 0.00 in0.0 mm
09:15 AM 30.4°F-0.9°C 14.4°F-9.8°C 51% Calm Calm -- 30.43 in1030.5 mb 0.00 in0.0 mm 0.00 in/hr0.0 mm/hr 0.00 in0.0 mm
09:00 AM 28.9°F-1.7°C 14.4°F-9.8°C 54% Calm Calm -- 30.43 in1030.5 mb 0.00 in0.0 mm 0.00 in/hr0.0 mm/hr 0.00 in0.0 mm
08:45 AM 27.8°F-2.3°C 14.2°F-9.9°C 56% Calm Calm -- 30.42 in1030.1 mb 0.00 in0.0 mm 0.00 in/hr0.0 mm/hr 0.00 in0.0 mm
08:30 AM 27.1°F-2.7°C 15.9°F-8.9°C 62% Calm Calm -- 30.41 in1029.8 mb 0.00 in0.0 mm 0.00 in/hr0.0 mm/hr 0.00 in0.0 mm
08:15 AM 25.7°F-3.5°C 15.6°F-9.1°C 65% Calm Calm -- 30.39 in1029.1 mb 0.00 in0.0 mm 0.00 in/hr0.0 mm/hr 0.00 in0.0 mm
08:00 AM 24.4°F-4.2°C 15.4°F-9.2°C 68% 0.1 mph SE0.2 kmh SE 0.7 mph1.1 kmh 30.39 in1029.1 mb 0.00 in0.0 mm 0.00 in/hr0.0 mm/hr 0.00 in0.0 mm
07:45 AM 23.3°F-4.8°C 15.4°F-9.2°C 71% Calm Calm -- 30.38 in1028.8 mb 0.00 in0.0 mm 0.00 in/hr0.0 mm/hr 0.00 in0.0 mm
07:30 AM 22.6°F-5.2°C 15.3°F-9.3°C 73% Calm Calm -- 30.37 in1028.4 mb 0.00 in0.0 mm 0.00 in/hr0.0 mm/hr 0.00 in0.0 mm
07:15 AM 22.1°F-5.5°C 15.1°F-9.4°C 74% Calm Calm -- 30.35 in1027.8 mb 0.00 in0.0 mm 0.00 in/hr0.0 mm/hr 0.00 in0.0 mm
07:00 AM 21.7°F-5.7°C 14.4°F-9.8°C 73% Calm Calm -- 30.34 in1027.4 mb 0.00 in0.0 mm 0.00 in/hr0.0 mm/hr 0.00 in0.0 mm
06:45 AM 21.7°F-5.7°C 14.1°F-9.9°C 72% Calm Calm -- 30.33 in1027.1 mb 0.00 in0.0 mm 0.00 in/hr0.0 mm/hr 0.00 in0.0 mm
06:30 AM 21.9°F-5.6°C 14.3°F-9.8°C 72% Calm Calm -- 30.32 in1026.8 mb 0.00 in0.0 mm 0.00 in/hr0.0 mm/hr 0.00 in0.0 mm
06:15 AM 22.1°F-5.5°C 14.2°F-9.9°C 71% Calm Calm -- 30.32 in1026.8 mb 0.00 in0.0 mm 0.00 in/hr0.0 mm/hr 0.00 in0.0 mm
06:00 AM 22.3°F-5.4°C 14.0°F-10.0°C 70% Calm Calm -- 30.31 in1026.4 mb 0.00 in0.0 mm 0.00 in/hr0.0 mm/hr 0.00 in0.0 mm
05:45 AM 22.8°F-5.1°C 14.2°F-9.9°C 69% Calm Calm -- 30.30 in1026.1 mb 0.00 in0.0 mm 0.00 in/hr0.0 mm/hr 0.00 in0.0 mm
05:30 AM 23.0°F-5.0°C 14.0°F-10.0°C 68% Calm Calm -- 30.29 in1025.7 mb 0.00 in0.0 mm 0.00 in/hr0.0 mm/hr 0.00 in0.0 mm
05:15 AM 23.2°F-4.9°C 14.2°F-9.9°C 68% Calm Calm -- 30.28 in1025.4 mb 0.00 in0.0 mm 0.00 in/hr0.0 mm/hr 0.00 in0.0 mm
05:00 AM 23.7°F-4.6°C 14.0°F-10.0°C 66% Calm Calm -- 30.28 in1025.4 mb 0.00 in0.0 mm 0.00 in/hr0.0 mm/hr 0.00 in0.0 mm
04:45 AM 24.2°F-4.3°C 14.6°F-9.7°C 66% Calm Calm -- 30.27 in1025.1 mb 0.00 in0.0 mm 0.00 in/hr0.0 mm/hr 0.00 in0.0 mm
04:30 AM 25.0°F-3.9°C 14.9°F-9.5°C 65% Calm Calm -- 30.26 in1024.7 mb 0.00 in0.0 mm 0.00 in/hr0.0 mm/hr 0.00 in0.0 mm
04:15 AM 25.1°F-3.8°C 14.7°F-9.6°C 64% Calm Calm -- 30.25 in1024.4 mb 0.00 in0.0 mm 0.00 in/hr0.0 mm/hr 0.00 in0.0 mm
04:00 AM 25.3°F-3.7°C 15.9°F-8.9°C 67% Calm Calm -- 30.24 in1024.0 mb 0.00 in0.0 mm 0.00 in/hr0.0 mm/hr 0.00 in0.0 mm
03:45 AM 25.5°F-3.6°C 16.1°F-8.8°C 67% Calm Calm -- 30.22 in1023.4 mb 0.00 in0.0 mm 0.00 in/hr0.0 mm/hr 0.00 in0.0 mm
03:30 AM 25.9°F-3.4°C 17.5°F-8.1°C 70% Calm Calm -- 30.21 in1023.0 mb 0.00 in0.0 mm 0.00 in/hr0.0 mm/hr 0.00 in0.0 mm
03:15 AM 25.7°F-3.5°C 17.6°F-8.0°C 71% Calm Calm -- 30.21 in1023.0 mb 0.00 in0.0 mm 0.00 in/hr0.0 mm/hr 0.00 in0.0 mm
03:00 AM 25.7°F-3.5°C 17.9°F-7.8°C 72% Calm Calm -- 30.20 in1022.7 mb 0.00 in0.0 mm 0.00 in/hr0.0 mm/hr 0.00 in0.0 mm
02:45 AM 26.0°F-3.3°C 18.6°F-7.4°C 73% Calm Calm -- 30.19 in1022.4 mb 0.00 in0.0 mm 0.00 in/hr0.0 mm/hr 0.00 in0.0 mm
02:30 AM 25.9°F-3.4°C 18.4°F-7.6°C 73% Calm Calm -- 30.19 in1022.4 mb 0.00 in0.0 mm 0.00 in/hr0.0 mm/hr 0.00 in0.0 mm
02:15 AM 26.0°F-3.3°C 18.0°F-7.8°C 71% Calm Calm -- 30.18 in1022.0 mb 0.00 in0.0 mm 0.00 in/hr0.0 mm/hr 0.00 in0.0 mm
02:00 AM 25.9°F-3.4°C 17.5°F-8.1°C 70% Calm Calm -- 30.18 in1022.0 mb 0.00 in0.0 mm 0.00 in/hr0.0 mm/hr 0.00 in0.0 mm
01:45 AM 25.9°F-3.4°C 17.1°F-8.3°C 69% Calm Calm -- 30.17 in1021.7 mb 0.00 in0.0 mm 0.00 in/hr0.0 mm/hr 0.00 in0.0 mm
01:30 AM 25.7°F-3.5°C 16.6°F-8.6°C 68% Calm Calm -- 30.17 in1021.7 mb 0.00 in0.0 mm 0.00 in/hr0.0 mm/hr 0.00 in0.0 mm
01:15 AM 25.5°F-3.6°C 16.5°F-8.6°C 68% Calm Calm -- 30.17 in1021.7 mb 0.00 in0.0 mm 0.00 in/hr0.0 mm/hr 0.00 in0.0 mm
01:00 AM 25.5°F-3.6°C 16.8°F-8.4°C 69% Calm Calm -- 30.17 in1021.7 mb 0.00 in0.0 mm 0.00 in/hr0.0 mm/hr 0.00 in0.0 mm
12:45 AM 25.7°F-3.5°C 16.6°F-8.6°C 68% Calm Calm -- 30.16 in1021.3 mb 0.00 in0.0 mm 0.00 in/hr0.0 mm/hr 0.00 in0.0 mm
12:30 AM 25.3°F-3.7°C 16.6°F-8.6°C 69% Calm Calm -- 30.16 in1021.3 mb 0.00 in0.0 mm 0.00 in/hr0.0 mm/hr 0.00 in0.0 mm
12:15 AM 25.3°F-3.7°C 16.6°F-8.6°C 69% Calm Calm -- 30.16 in1021.3 mb 0.00 in0.0 mm 0.00 in/hr0.0 mm/hr 0.00 in0.0 mm
12:00 AM 25.1°F-3.8°C 15.8°F-9.0°C 67% Calm Calm -- 30.15 in1021.0 mb 0.00 in0.0 mm 0.00 in/hr0.0 mm/hr 0.00 in0.0 mm